Time;durP1;ratioP1;P1;durP2;ratioP2;P2;SDS_P1;SDS_P2;PMS_P1;PMS_P2;Temp;Humidity;BMP_temperature;BMP_pressure;BME280_temperature;BME280_humidity;BME280_pressure;Samples;Min_cycle;Max_cycle;Signal;HPM_P1;HPM_P2
2022/03/30 04:31:20;;;;;;;;;58.25;44.50;;;;;14.85;59.57;99908.69;5048966;27;46781;-74
2022/03/30 04:33:46;;;;;;;;;67.25;50.25;;;;;14.70;59.98;99886.44;5036636;28;45355;-74
2022/03/30 04:36:11;;;;;;;;;58.00;46.75;;;;;14.80;59.93;99902.81;5036921;28;45394;-75
2022/03/30 04:38:37;;;;;;;;;60.00;49.33;;;;;14.83;60.05;99900.72;5036856;28;45281;-75
2022/03/30 04:41:03;;;;;;;;;61.33;47.67;;;;;14.81;59.99;99899.97;5036832;28;45565;-75
2022/03/30 04:43:28;;;;;;;;;57.75;47.00;;;;;14.63;59.50;99867.16;5037594;28;45627;-74
2022/03/30 04:45:54;;;;;;;;;56.50;43.75;;;;;14.85;59.82;99901.47;5037904;28;45572;-71
2022/03/30 04:48:20;;;;;;;;;57.25;45.00;;;;;14.87;59.46;99890.56;5035774;28;45257;-75
2022/03/30 04:50:45;;;;;;;;;58.75;47.00;;;;;14.85;59.36;99885.28;5033983;28;46969;-72
2022/03/30 04:53:11;;;;;;;;;63.00;47.67;;;;;14.63;59.51;99859.06;5032558;28;45510;-74
2022/03/30 04:55:36;;;;;;;;;63.67;49.00;;;;;14.83;59.36;99879.13;5033726;28;45423;-73
2022/03/30 04:58:02;;;;;;;;;62.00;47.00;;;;;14.82;60.07;99879.22;5035835;28;45505;-74
2022/03/30 05:00:28;;;;;;;;;64.00;50.00;;;;;14.83;60.19;99883.66;5035351;28;45471;-75
2022/03/30 05:02:53;;;;;;;;;59.25;47.00;;;;;14.84;59.68;99880.84;5035761;28;46017;-75
2022/03/30 05:05:19;;;;;;;;;65.00;49.00;;;;;14.74;60.30;99866.34;5036855;28;45457;-78
2022/03/30 05:07:44;;;;;;;;;63.75;49.00;;;;;14.83;60.50;99878.25;5039010;28;45435;-74
2022/03/30 05:10:12;;;;;;;;;64.75;47.75;;;;;14.79;59.93;99874.09;5033188;28;47401;-74
2022/03/30 05:12:38;;;;;;;;;63.00;49.50;;;;;14.72;60.86;99885.34;5036233;28;46319;-73
2022/03/30 05:15:04;;;;;;;;;62.75;47.75;;;;;14.54;61.20;99864.31;5036499;28;45485;-76
2022/03/30 05:17:29;;;;;;;;;61.00;48.33;;;;;14.62;61.16;99884.34;5034943;28;45355;-77
2022/03/30 05:19:55;;;;;;;;;53.75;42.50;;;;;14.61;61.05;99877.22;5036206;28;45304;-77
2022/03/30 05:22:20;;;;;;;;;59.75;46.25;;;;;14.58;61.00;99873.88;5036252;28;46190;-76
2022/03/30 05:24:45;;;;;;;;;64.00;48.67;;;;;14.56;61.91;99868.59;5036740;28;45366;-77
2022/03/30 05:27:11;;;;;;;;;62.00;47.25;;;;;14.57;61.84;99881.13;5036644;28;45543;-81
2022/03/30 05:29:37;;;;;;;;;62.50;47.25;;;;;14.58;61.64;99872.06;5018379;28;46636;-79
2022/03/30 05:32:02;;;;;;;;;55.50;44.00;;;;;14.58;62.16;99876.59;5036671;28;45579;-75
2022/03/30 05:34:28;;;;;;;;;64.67;48.67;;;;;14.55;63.54;99874.97;5037134;28;45359;-80
2022/03/30 05:36:53;;;;;;;;;65.75;48.25;;;;;14.55;63.52;99882.19;5038144;28;45249;-77
2022/03/30 05:39:19;;;;;;;;;65.67;49.67;;;;;14.53;63.93;99874.25;5037391;28;45297;-80
2022/03/30 05:41:44;;;;;;;;;62.00;49.00;;;;;14.43;63.81;99865.13;5036363;28;46131;-79
2022/03/30 05:44:09;;;;;;;;;61.67;47.00;;;;;14.38;63.46;99878.06;5036022;28;45581;-81
2022/03/30 05:46:36;;;;;;;;;59.33;47.67;;;;;14.32;63.36;99892.00;5034106;28;45630;-76
2022/03/30 05:49:05;;;;;;;;;62.00;48.33;;;;;14.20;64.30;99883.00;5034783;28;45466;-77
2022/03/30 05:51:32;;;;;;;;;63.33;49.33;;;;;14.13;64.88;99886.25;5035813;28;45253;-77
2022/03/30 05:53:57;;;;;;;;;67.33;52.67;;;;;14.08;65.93;99893.81;5035932;28;45438;-78
2022/03/30 05:57:00;;;;;;;;;63.67;50.67;;;;;14.00;65.36;99889.00;5035745;28;45661;-78
2022/03/30 05:59:09;;;;;;;;;60.00;46.33;;;;;13.90;66.33;99893.34;5034337;28;45554;-80
2022/03/30 06:01:34;;;;;;;;;61.33;49.33;;;;;13.84;66.49;99893.81;5035237;28;45469;-78
2022/03/30 06:04:00;;;;;;;;;65.00;49.67;;;;;13.71;66.39;99877.66;5036075;28;45610;-77
2022/03/30 06:06:25;;;;;;;;;65.33;52.33;;;;;13.72;66.75;99882.06;5050316;28;45552;-78
2022/03/30 06:08:51;;;;;;;;;69.00;51.67;;;;;13.69;66.84;99879.63;5017911;28;46002;-78
2022/03/30 06:11:16;;;;;;;;;67.33;50.00;;;;;13.70;67.47;99881.31;5035533;28;45920;-77
2022/03/30 06:13:41;;;;;;;;;64.67;50.33;;;;;13.67;67.59;99894.16;5035803;28;45373;-77
2022/03/30 06:16:07;;;;;;;;;62.33;50.00;;;;;13.67;67.25;99880.69;5035776;28;45413;-79
2022/03/30 06:18:33;;;;;;;;;68.67;51.00;;;;;13.69;67.69;99881.44;5035527;28;45568;-78
2022/03/30 06:20:58;;;;;;;;;63.33;49.00;;;;;13.77;67.27;99895.22;5036066;28;46068;-79
2022/03/30 06:23:24;;;;;;;;;63.33;49.33;;;;;13.83;67.50;99898.31;5035664;28;45371;-80
2022/03/30 06:25:50;;;;;;;;;62.33;48.33;;;;;13.87;67.59;99893.56;5033004;28;45430;-79
2022/03/30 06:28:17;;;;;;;;;63.00;49.33;;;;;13.86;66.67;99865.78;5035104;28;45529;-78
2022/03/30 06:30:43;;;;;;;;;64.33;48.67;;;;;14.09;66.32;99896.41;5034710;28;46070;-77
2022/03/30 06:33:08;;;;;;;;;60.25;48.50;;;;;14.11;66.06;99886.38;5016838;28;45363;-78
2022/03/30 06:35:33;;;;;;;;;64.00;49.00;;;;;14.23;66.16;99903.47;5035189;28;45343;-77
2022/03/30 06:37:59;;;;;;;;;67.33;49.00;;;;;14.23;66.23;99900.78;5035269;28;45416;-77
2022/03/30 06:40:24;;;;;;;;;58.67;48.33;;;;;14.22;66.04;99902.59;5035038;28;46057;-79
2022/03/30 06:42:53;;;;;;;;;64.00;50.67;;;;;14.20;66.16;99907.28;5035215;28;45401;-77
2022/03/30 06:45:18;;;;;;;;;63.00;49.33;;;;;14.15;65.73;99900.47;5034980;28;45483;-77
2022/03/30 06:47:44;;;;;;;;;63.33;49.67;;;;;14.02;66.86;99882.53;5034378;28;45308;-80
2022/03/30 06:50:11;;;;;;;;;61.33;47.00;;;;;13.97;66.96;99895.47;5017062;28;46387;-77
2022/03/30 06:52:36;;;;;;;;;58.67;48.00;;;;;13.99;67.45;99900.75;5017049;28;45696;-78
2022/03/30 06:55:04;;;;;;;;;57.75;45.25;;;;;13.99;67.17;99895.38;5034939;28;45214;-79
2022/03/30 06:57:30;;;;;;;;;65.33;52.00;;;;;14.06;67.49;99896.63;5034913;28;45417;-79
2022/03/30 06:59:56;;;;;;;;;63.33;51.00;;;;;14.04;67.77;99906.66;5034719;28;46501;-77
2022/03/30 07:02:22;;;;;;;;;61.00;50.00;;;;;14.01;67.26;99907.75;5034215;28;45469;-78
2022/03/30 07:04:47;;;;;;;;;62.33;47.33;;;;;13.92;66.81;99888.72;5037114;28;45529;-78
2022/03/30 07:12:40;;;;;;;;;65.67;50.00;;;;;13.93;67.95;99883.22;5033678;28;45537;-77
2022/03/30 07:15:05;;;;;;;;;67.00;50.00;;;;;13.97;68.19;99892.78;5033687;28;45466;-78
2022/03/30 07:17:31;;;;;;;;;66.67;51.00;;;;;13.99;68.48;99906.16;5034005;28;45248;-80
2022/03/30 07:19:56;;;;;;;;;70.67;50.00;;;;;13.92;68.25;99894.97;5016365;28;45997;-79
2022/03/30 07:22:22;;;;;;;;;68.75;51.00;;;;;14.00;68.17;99908.72;5034011;28;45374;-79
2022/03/30 07:24:47;;;;;;;;;63.67;50.00;;;;;14.04;68.19;99903.97;5034626;28;45494;-77
2022/03/30 07:27:12;;;;;;;;;65.67;51.67;;;;;14.02;67.86;99895.16;5034394;28;45449;-75
2022/03/30 07:29:38;;;;;;;;;64.00;47.67;;;;;14.09;68.07;99903.63;5034398;28;46444;-79
2022/03/30 07:32:04;;;;;;;;;65.33;52.00;;;;;14.13;68.13;99897.03;5015445;28;45256;-77
2022/03/30 07:34:30;;;;;;;;;67.00;52.00;;;;;14.14;67.59;99894.22;5034036;28;45415;-79
2022/03/30 07:36:58;;;;;;;;;64.00;51.00;;;;;14.24;67.66;99905.19;5034376;28;45375;-79
2022/03/30 07:39:23;;;;;;;;;68.00;52.00;;;;;14.29;67.81;99908.44;5015576;28;46214;-78
2022/03/30 07:41:49;;;;;;;;;73.67;51.67;;;;;14.32;67.95;99900.09;5034244;28;45264;-77
2022/03/30 07:44:14;;;;;;;;;70.33;52.67;;;;;14.36;67.93;99901.59;5034405;28;45350;-78
2022/03/30 07:46:40;;;;;;;;;67.67;53.33;;;;;14.37;68.02;99898.75;5033930;28;45550;-79
2022/03/30 07:49:06;;;;;;;;;65.67;51.67;;;;;14.44;67.99;99906.44;5034460;28;45450;-78
2022/03/30 07:51:31;;;;;;;;;71.67;56.33;;;;;14.47;68.02;99903.50;5034531;28;45364;-78
2022/03/30 07:53:56;;;;;;;;;68.33;55.00;;;;;14.38;67.68;99887.03;5034571;28;45367;-77
2022/03/30 07:56:22;;;;;;;;;66.00;51.67;;;;;14.46;67.04;99905.34;5016256;28;46607;-79
2022/03/30 07:58:49;;;;;;;;;71.33;52.33;;;;;14.47;67.10;99898.97;5034884;28;45448;-76
2022/03/30 08:01:16;;;;;;;;;71.33;55.00;;;;;14.50;67.42;99900.59;5016520;28;45472;-77
2022/03/30 08:03:43;;;;;;;;;69.33;53.67;;;;;14.32;67.75;99868.59;5034800;28;45286;-76
2022/03/30 08:06:09;;;;;;;;;71.33;55.00;;;;;14.50;67.70;99896.06;5036904;28;45353;-77
2022/03/30 08:08:34;;;;;;;;;95.33;69.33;;;;;14.49;68.96;99897.03;5035252;28;45399;-76
2022/03/30 08:10:59;;;;;;;;;68.00;53.33;;;;;14.42;67.84;99886.81;5035235;28;45413;-77
2022/03/30 08:13:25;;;;;;;;;69.67;56.00;;;;;14.51;68.62;99908.56;5034606;28;45406;-77
2022/03/30 08:15:50;;;;;;;;;66.00;53.00;;;;;14.46;68.25;99899.09;5033750;28;45557;-77
2022/03/30 08:18:15;;;;;;;;;73.67;55.00;;;;;14.46;68.57;99902.63;5033409;28;46114;-78
2022/03/30 08:23:24;;;;;;;;;74.67;59.00;;;;;14.42;68.09;99894.91;5033914;28;45327;-77
2022/03/30 08:25:50;;;;;;;;;64.33;51.00;;;;;14.44;68.71;99903.75;5033636;28;45664;-78
2022/03/30 08:28:15;;;;;;;;;61.00;51.00;;;;;14.45;69.28;99906.34;5033738;28;46351;-79
2022/03/30 08:30:41;;;;;;;;;70.33;53.00;;;;;14.43;68.49;99907.41;5033316;28;45591;-78
2022/03/30 08:33:06;;;;;;;;;71.67;54.33;;;;;14.41;68.22;99898.56;5015236;28;45749;-77
2022/03/30 08:35:32;;;;;;;;;66.00;51.00;;;;;14.38;68.21;99900.50;5033505;28;45368;-77
2022/03/30 08:37:59;;;;;;;;;65.00;50.00;;;;;14.39;68.07;99902.25;5033740;28;45347;-79
2022/03/30 08:40:24;;;;;;;;;68.33;52.00;;;;;14.35;68.40;99899.88;5035195;28;45234;-79
2022/03/30 08:42:51;;;;;;;;;70.33;51.67;;;;;14.40;67.79;99897.72;5037038;28;45351;-78
2022/03/30 08:45:17;;;;;;;;;69.67;53.33;;;;;14.39;68.46;99896.00;5037357;28;45277;-78
2022/03/30 08:47:42;;;;;;;;;64.33;50.00;;;;;14.41;68.46;99896.75;5040751;28;46035;-77
2022/03/30 08:50:08;;;;;;;;;57.33;47.00;;;;;14.48;67.92;99906.09;5038667;28;45406;-78
2022/03/30 08:52:34;;;;;;;;;53.00;44.00;;;;;14.30;67.62;99873.25;5038496;28;45316;-79
2022/03/30 08:54:59;;;;;;;;;56.67;45.67;;;;;14.50;68.26;99898.75;5039227;28;45533;-78
2022/03/30 08:57:25;;;;;;;;;67.33;51.33;;;;;14.42;67.82;99878.72;5037853;28;46627;-78
2022/03/30 09:00:12;;;;;;;;;66.00;49.00;;;;;14.60;67.75;99910.56;5037480;28;45384;-78
2022/03/30 09:02:45;;;;;;;;;62.33;48.33;;;;;14.63;67.39;99904.91;5036041;28;45389;-78
2022/03/30 09:05:22;;;;;;;;;61.33;48.00;;;;;14.64;67.09;99898.56;5045143;28;45413;-77
2022/03/30 09:07:50;;;;;;;;;65.33;48.33;;;;;14.75;66.19;99897.75;5031120;28;46886;-77
2022/03/30 09:10:19;;;;;;;;;63.50;49.00;;;;;14.79;65.97;99899.25;5039266;28;45452;-75
2022/03/30 09:12:47;;;;;;;;;60.50;49.25;;;;;14.76;66.51;99891.38;5038902;28;45457;-78
2022/03/30 09:15:13;;;;;;;;;60.00;48.25;;;;;14.88;65.67;99898.53;5038215;28;45695;-77
2022/03/30 09:17:41;;;;;;;;;58.33;48.33;;;;;14.89;66.29;99892.13;5036835;28;46145;-77
2022/03/30 09:20:12;;;;;;;;;64.50;50.00;;;;;15.00;64.98;99894.88;5035204;28;45280;-77
2022/03/30 09:22:45;;;;;;;;;60.25;46.75;;;;;15.14;64.50;99891.13;5037959;28;45506;-78
2022/03/30 09:25:12;;;;;;;;;62.67;50.33;;;;;15.11;64.76;99878.72;5036527;28;45450;-77
2022/03/30 09:27:42;;;;;;;;;57.00;43.00;;;;;15.31;64.80;99900.59;5035029;28;47479;-77
2022/03/30 09:30:14;;;;;;;;;56.67;45.33;;;;;15.34;66.02;99892.22;5036533;28;45471;-76
2022/03/30 09:32:41;;;;;;;;;58.50;48.00;;;;;15.50;64.59;99907.09;5036651;28;45316;-78
2022/03/30 09:35:41;;;;;;;;;63.00;48.25;;;;;15.57;63.53;99893.97;5037864;28;45361;-79
2022/03/30 09:38:15;;;;;;;;;57.67;43.67;;;;;15.66;63.81;99885.13;5036685;28;45423;-79
2022/03/30 09:40:57;;;;;;;;;66.25;48.25;;;;;15.83;63.48;99900.84;5036927;28;45408;-78
2022/03/30 09:43:31;;;;;;;;;59.25;46.75;;;;;15.92;64.12;99885.72;5036570;28;45424;-76
2022/03/30 09:46:03;;;;;;;;;58.75;45.75;;;;;16.07;63.95;99887.22;5036113;28;45517;-79
2022/03/30 09:48:30;;;;;;;;;59.50;46.75;;;;;16.17;63.34;99892.69;5035746;28;46377;-78
2022/03/30 09:50:57;;;;;;;;;55.75;46.50;;;;;16.27;63.01;99893.66;5036102;28;45276;-77
2022/03/30 09:53:28;;;;;;;;;60.75;47.50;;;;;16.34;62.32;99888.59;5036152;28;45431;-77
2022/03/30 09:56:00;;;;;;;;;62.25;47.50;;;;;16.38;62.21;99896.34;5036197;28;45442;-78
2022/03/30 09:58:28;;;;;;;;;62.00;50.50;;;;;16.31;61.39;99873.50;5035940;28;45494;-79
2022/03/30 10:01:14;;;;;;;;;61.75;45.25;;;;;16.46;60.37;99890.28;5036027;28;45287;-76
2022/03/30 10:03:45;;;;;;;;;61.00;48.25;;;;;16.46;60.37;99895.69;5017467;28;45433;-77
2022/03/30 10:06:17;;;;;;;;;60.00;46.75;;;;;16.48;60.88;99882.91;5037168;28;45523;-78
2022/03/30 10:08:45;;;;;;;;;59.50;47.75;;;;;16.52;59.72;99879.78;5035931;28;45373;-78
2022/03/30 10:11:15;;;;;;;;;59.50;47.00;;;;;16.55;59.37;99886.81;5036078;28;45505;-77
2022/03/30 10:13:41;;;;;;;;;62.00;47.00;;;;;16.56;58.83;99881.28;5019017;28;45336;-77
2022/03/30 10:16:08;;;;;;;;;61.25;47.75;;;;;16.62;59.02;99883.47;5034931;28;45493;-78
2022/03/30 10:18:34;;;;;;;;;54.75;46.00;;;;;16.60;58.28;99876.44;5035277;28;46199;-78
2022/03/30 10:21:22;;;;;;;;;64.00;46.33;;;;;16.64;57.96;99875.25;5035261;28;45773;-77
2022/03/30 10:24:24;;;;;;;;;58.50;45.00;;;;;16.66;57.43;99881.38;5018808;28;45604;-79
2022/03/30 10:27:02;;;;;;;;;61.25;47.25;;;;;16.59;56.91;99872.00;5017131;28;46355;-78
2022/03/30 10:29:29;;;;;;;;;58.25;46.25;;;;;16.50;56.81;99862.81;5038299;28;46192;-78
2022/03/30 10:32:13;;;;;;;;;61.50;47.00;;;;;16.62;57.66;99871.78;5043361;28;45357;-76
2022/03/30 10:34:42;;;;;;;;;59.75;49.75;;;;;16.55;58.61;99865.16;5046277;28;45367;-80
2022/03/30 10:37:09;;;;;;;;;63.00;50.00;;;;;16.73;57.38;99870.91;5037702;28;45608;-78
2022/03/30 10:39:55;;;;;;;;;63.50;50.50;;;;;16.71;57.07;99870.16;5036511;28;46879;-73
2022/03/30 10:42:21;;;;;;;;;59.75;44.25;;;;;16.49;56.89;99825.09;5026494;28;45610;-78
2022/03/30 10:44:49;;;;;;;;;60.00;45.75;;;;;16.78;56.75;99853.25;5027446;28;45566;-76
2022/03/30 10:47:23;;;;;;;;;59.25;46.50;;;;;16.76;56.78;99838.16;5030670;28;45537;-74
2022/03/30 10:49:51;;;;;;;;;62.50;47.75;;;;;16.95;56.61;99863.50;5027932;28;47251;-74
2022/03/30 10:52:39;;;;;;;;;58.50;44.00;;;;;17.01;55.86;99854.84;5028545;28;45289;-75
2022/03/30 10:55:13;;;;;;;;;59.25;45.25;;;;;17.02;55.15;99851.13;5013409;28;45385;-76
2022/03/30 10:57:50;;;;;;;;;58.00;43.75;;;;;17.03;55.66;99844.72;5013458;28;45514;-77
2022/03/30 11:00:22;;;;;;;;;57.25;43.00;;;;;17.10;55.83;99849.63;5030371;28;45521;-76
2022/03/30 11:02:48;;;;;;;;;59.25;47.25;;;;;17.12;55.87;99836.78;5030687;28;45380;-75
2022/03/30 11:05:18;;;;;;;;;53.75;44.75;;;;;17.13;55.38;99835.81;5024649;28;45499;-78
2022/03/30 11:07:44;;;;;;;;;57.00;47.00;;;;;17.11;55.20;99835.94;5034830;28;45249;-77
2022/03/30 11:10:19;;;;;;;;;57.25;46.00;;;;;17.08;56.13;99835.38;5034635;28;45505;-78
2022/03/30 11:13:07;;;;;;;;;55.00;43.75;;;;;17.06;56.01;99831.94;5034820;28;45275;-77
2022/03/30 11:16:00;;;;;;;;;57.25;45.50;;;;;17.03;54.50;99838.47;5033859;28;45478;-76
2022/03/30 11:18:29;;;;;;;;;57.00;47.25;;;;;16.98;53.97;99828.03;5025280;28;45554;-78
2022/03/30 11:21:15;;;;;;;;;58.75;46.25;;;;;16.96;54.40;99827.31;5034350;28;45551;-77
2022/03/30 11:23:55;;;;;;;;;55.75;44.75;;;;;16.88;54.74;99807.31;5034725;28;45508;-78
2022/03/30 11:26:22;;;;;;;;;66.00;49.50;;;;;16.88;54.14;99815.44;5034807;28;45370;-77
2022/03/30 11:28:48;;;;;;;;;54.00;42.00;;;;;16.81;54.37;99806.13;5016768;28;46234;-77
2022/03/30 11:31:23;;;;;;;;;61.75;47.25;;;;;16.87;54.05;99813.72;5034138;28;45961;-78
2022/03/30 11:34:40;;;;;;;;;55.50;43.50;;;;;16.96;54.52;99818.31;5034960;28;45433;-77
2022/03/30 11:37:08;;;;;;;;;54.25;44.50;;;;;16.96;53.58;99804.78;4994503;28;45358;-78
2022/03/30 11:39:34;;;;;;;;;57.00;44.25;;;;;16.98;53.77;99800.09;5035012;28;45580;-76
2022/03/30 11:42:00;;;;;;;;;52.00;42.50;;;;;16.99;53.89;99796.41;5034518;28;46070;-76
2022/03/30 11:47:16;;;;;;;;;57.75;45.25;;;;;17.13;53.46;99797.91;5032274;28;45357;-78
2022/03/30 11:49:51;;;;;;;;;51.00;40.00;;;;;17.05;52.31;99766.06;5026772;28;45490;-76
2022/03/30 11:52:18;;;;;;;;;54.00;43.25;;;;;17.10;53.11;99755.69;5031014;28;46181;-77
2022/03/30 11:54:52;;;;;;;;;50.50;39.50;;;;;17.37;52.13;99780.31;5032856;28;45435;-77
2022/03/30 11:57:18;;;;;;;;;52.25;43.75;;;;;17.68;51.77;99774.91;5031724;28;45407;-77
2022/03/30 11:59:55;;;;;;;;;51.25;39.00;;;;;18.11;50.67;99758.25;5033599;28;45297;-78
2022/03/30 12:02:28;;;;;;;;;56.25;42.00;;;;;18.73;48.80;99765.94;5032866;28;45658;-78
2022/03/30 12:04:55;;;;;;;;;52.00;41.25;;;;;19.01;48.10;99777.75;5036019;28;45495;-78
2022/03/30 12:07:22;;;;;;;;;55.50;41.75;;;;;19.08;46.81;99767.13;5032966;28;45583;-77
2022/03/30 12:09:53;;;;;;;;;53.00;41.50;;;;;19.16;46.49;99761.81;5033667;28;45245;-77
2022/03/30 12:12:35;;;;;;;;;55.50;41.00;;;;;19.02;46.40;99741.44;5032255;28;46291;-78
2022/03/30 12:15:05;;;;;;;;;44.50;36.50;;;;;19.33;46.12;99766.47;5031418;28;45475;-77
2022/03/30 12:17:31;;;;;;;;;41.75;36.75;;;;;19.34;46.37;99761.88;5022060;28;45345;-77
2022/03/30 12:19:56;;;;;;;;;51.25;43.50;;;;;19.18;46.12;99760.66;5031377;28;46692;-75
2022/03/30 12:22:23;;;;;;;;;58.75;47.00;;;;;19.08;46.38;99751.69;5033588;28;45545;-79
2022/03/30 12:24:49;;;;;;;;;57.25;44.25;;;;;18.96;46.75;99754.75;5031787;28;45474;-77
2022/03/30 12:27:15;;;;;;;;;55.00;43.75;;;;;18.83;47.81;99753.19;5037297;28;45370;-76
2022/03/30 12:29:42;;;;;;;;;50.75;41.25;;;;;18.66;48.09;99747.66;5037940;28;45446;-78
2022/03/30 12:32:10;;;;;;;;;57.00;43.00;;;;;18.55;48.10;99754.06;5036663;28;45484;-76
2022/03/30 12:34:37;;;;;;;;;53.50;43.00;;;;;18.44;48.53;99743.41;5030621;28;45486;-77
2022/03/30 12:37:05;;;;;;;;;50.00;39.75;;;;;18.31;48.10;99746.38;5033533;28;45407;-79
2022/03/30 12:39:40;;;;;;;;;51.25;40.50;;;;;18.20;48.09;99740.28;5036944;28;45513;-79
2022/03/30 12:42:23;;;;;;;;;57.00;42.00;;;;;18.16;48.01;99745.13;5037240;28;45391;-79
2022/03/30 12:44:48;;;;;;;;;51.25;40.75;;;;;18.07;48.36;99744.13;5040316;28;45367;-77
2022/03/30 12:47:16;;;;;;;;;53.00;43.25;;;;;17.98;48.52;99741.41;5026263;28;45416;-76
2022/03/30 12:49:43;;;;;;;;;53.75;42.00;;;;;17.75;48.65;99714.56;5050223;28;45710;-76
2022/03/30 12:52:14;;;;;;;;;46.00;38.75;;;;;17.77;48.69;99728.84;5050348;28;46315;-75
2022/03/30 12:54:40;;;;;;;;;56.25;44.50;;;;;17.80;48.08;99737.66;5028253;28;45521;-78
2022/03/30 12:57:06;;;;;;;;;55.00;41.75;;;;;17.65;47.96;99718.25;5041160;28;45421;-78
2022/03/30 12:59:32;;;;;;;;;52.00;37.50;;;;;17.71;48.98;99725.81;5041025;28;45363;-78
2022/03/30 13:01:58;;;;;;;;;56.25;41.50;;;;;17.69;48.98;99725.94;5039645;28;46608;-76
2022/03/30 13:04:28;;;;;;;;;47.25;36.75;;;;;17.59;48.40;99699.81;5039451;28;45601;-77
2022/03/30 13:07:27;;;;;;;;;53.75;39.75;;;;;17.63;47.75;99712.97;5039180;28;45205;-77
2022/03/30 13:10:10;;;;;;;;;52.50;42.00;;;;;17.47;48.37;99706.34;5006905;28;46001;-77
2022/03/30 13:12:39;;;;;;;;;52.75;41.75;;;;;17.44;49.07;99710.16;5038819;28;45442;-76
2022/03/30 13:15:06;;;;;;;;;50.50;40.00;;;;;17.35;48.75;99701.03;5037424;28;45333;-77
2022/03/30 13:17:33;;;;;;;;;49.75;39.50;;;;;17.31;49.06;99701.44;5035965;28;45828;-78
2022/03/30 13:20:02;;;;;;;;;55.00;39.25;;;;;17.24;49.53;99675.91;5036442;28;45276;-76
2022/03/30 13:22:29;;;;;;;;;52.75;40.75;;;;;17.35;49.55;99694.78;5035901;28;45431;-78
2022/03/30 13:24:54;;;;;;;;;49.50;39.25;;;;;17.28;49.55;99683.63;5018233;28;45873;-78
2022/03/30 13:27:21;;;;;;;;;55.00;41.25;;;;;17.19;49.24;99676.31;5019022;28;45332;-77
2022/03/30 13:29:47;;;;;;;;;51.75;38.50;;;;;17.24;49.19;99687.59;5037116;28;45246;-77
2022/03/30 13:32:13;;;;;;;;;52.00;43.00;;;;;17.20;49.56;99682.59;5035965;28;45312;-78
2022/03/30 13:34:38;;;;;;;;;52.75;40.00;;;;;17.17;49.86;99683.75;5036799;28;45384;-75
2022/03/30 13:37:05;;;;;;;;;45.25;36.00;;;;;17.08;49.69;99662.06;5043355;28;45574;-78
2022/03/30 13:39:30;;;;;;;;;47.75;39.25;;;;;16.99;49.38;99663.72;5019403;28;46969;-78
2022/03/30 13:41:56;;;;;;;;;41.50;34.25;;;;;17.08;49.56;99668.31;5040553;28;45494;-78
2022/03/30 13:44:22;;;;;;;;;46.25;38.50;;;;;17.06;49.61;99666.75;5037792;28;45332;-77
2022/03/30 13:46:49;;;;;;;;;47.00;37.75;;;;;16.87;49.33;99630.47;5047796;28;45300;-79
2022/03/30 13:49:16;;;;;;;;;52.00;40.25;;;;;16.95;49.51;99638.78;5040965;28;46116;-79
2022/03/30 13:51:44;;;;;;;;;49.00;37.50;;;;;17.01;50.26;99638.22;5031526;28;47124;-77
2022/03/30 13:54:09;;;;;;;;;49.75;39.75;;;;;16.99;49.07;99634.81;5048030;28;45413;-77
2022/03/30 13:56:35;;;;;;;;;48.50;40.25;;;;;16.98;49.50;99626.81;5040510;28;45363;-79
2022/03/30 13:59:01;;;;;;;;;49.75;37.75;;;;;17.13;49.42;99644.38;5045243;28;45580;-79
2022/03/30 14:01:28;;;;;;;;;53.50;40.50;;;;;17.06;49.77;99626.97;5024119;28;47378;-79
2022/03/30 14:03:53;;;;;;;;;47.75;38.25;;;;;17.10;49.26;99627.56;5046021;28;45320;-76
2022/03/30 14:06:19;;;;;;;;;47.50;36.75;;;;;17.15;48.59;99641.53;5038799;28;44726;-78
2022/03/30 14:08:44;;;;;;;;;46.75;36.75;;;;;17.06;49.40;99615.28;5051791;28;45505;-77
2022/03/30 14:11:10;;;;;;;;;41.00;35.00;;;;;17.20;48.93;99647.38;5048051;28;45412;-77
2022/03/30 14:13:35;;;;;;;;;52.50;38.50;;;;;17.22;49.10;99642.69;5019131;28;45956;-77
2022/03/30 14:16:02;;;;;;;;;49.75;39.00;;;;;17.06;48.64;99636.94;5036255;28;45352;-77
2022/03/30 14:18:28;;;;;;;;;43.00;36.25;;;;;17.03;49.15;99636.22;5035493;28;45304;-76
2022/03/30 14:20:56;;;;;;;;;35.50;32.50;;;;;17.05;49.32;99636.09;5033731;28;47890;-77
2022/03/30 14:23:22;;;;;;;;;47.50;37.75;;;;;17.01;48.82;99632.78;5035653;28;45307;-78
2022/03/30 14:25:48;;;;;;;;;44.25;37.00;;;;;17.04;49.33;99628.97;5035388;28;45407;-77
2022/03/30 14:28:14;;;;;;;;;47.75;37.75;;;;;17.05;49.27;99632.53;5035408;28;45302;-77
2022/03/30 14:30:40;;;;;;;;;44.25;36.00;;;;;17.03;49.29;99617.25;5034959;28;45407;-80
2022/03/30 14:33:07;;;;;;;;;43.75;34.75;;;;;17.09;48.90;99626.72;5035178;28;45381;-79
2022/03/30 14:35:34;;;;;;;;;46.50;35.00;;;;;17.17;48.85;99617.88;5035322;28;45539;-76
2022/03/30 14:38:03;;;;;;;;;45.75;37.25;;;;;17.19;48.66;99616.72;5036299;28;45342;-77
2022/03/30 14:40:29;;;;;;;;;42.75;34.75;;;;;17.08;48.31;99594.34;5035394;28;46221;-75
2022/03/30 14:42:55;;;;;;;;;44.50;34.00;;;;;17.27;48.25;99613.31;5035308;28;45378;-82
2022/03/30 14:45:21;;;;;;;;;50.50;36.50;;;;;17.18;47.33;99601.47;5036224;28;45527;-76
2022/03/30 14:47:47;;;;;;;;;39.25;35.00;;;;;17.11;47.80;99603.03;5034935;28;45398;-75
2022/03/30 14:50:13;;;;;;;;;39.25;32.75;;;;;17.19;47.45;99611.31;5018219;28;48550;-78
2022/03/30 14:52:39;;;;;;;;;40.00;34.75;;;;;17.25;47.44;99612.63;5035122;28;45346;-78
2022/03/30 14:55:07;;;;;;;;;36.50;32.50;;;;;17.10;47.85;99590.47;5038032;28;45512;-77
2022/03/30 14:57:32;;;;;;;;;38.75;34.75;;;;;17.19;48.21;99611.31;5043672;28;45314;-78
2022/03/30 14:59:58;;;;;;;;;47.25;36.50;;;;;16.92;48.15;99579.50;5043471;28;45398;-78
2022/03/30 15:02:24;;;;;;;;;42.50;33.25;;;;;16.96;47.47;99591.75;5034049;28;45821;-78
2022/03/30 15:04:51;;;;;;;;;41.50;33.50;;;;;16.93;47.60;99600.13;5036975;28;45498;-79
2022/03/30 15:07:18;;;;;;;;;38.75;32.75;;;;;16.84;47.93;99592.03;5033844;28;46211;-79
2022/03/30 15:09:44;;;;;;;;;42.00;34.75;;;;;16.88;48.20;99599.72;5015353;28;48171;-78
2022/03/30 15:12:11;;;;;;;;;43.00;37.50;;;;;16.87;48.66;99597.13;5035037;28;45568;-78
2022/03/30 15:14:37;;;;;;;;;49.75;37.00;;;;;16.77;49.42;99593.53;5034667;28;46314;-77
2022/03/30 15:17:04;;;;;;;;;40.75;32.75;;;;;16.48;50.56;99593.41;5034637;28;45421;-78
2022/03/30 15:19:30;;;;;;;;;45.75;34.50;;;;;16.31;51.07;99597.59;5034118;28;45352;-77
2022/03/30 15:21:55;;;;;;;;;40.25;34.00;;;;;16.11;53.36;99574.13;5016667;28;45364;-76
2022/03/30 15:24:21;;;;;;;;;45.25;36.00;;;;;16.14;53.84;99588.25;5034296;28;45485;-78
2022/03/30 15:26:47;;;;;;;;;44.00;35.50;;;;;16.14;55.16;99596.38;5034643;28;45434;-78
2022/03/30 15:29:15;;;;;;;;;53.50;38.00;;;;;15.63;55.61;99515.25;5034389;28;45939;-78
2022/03/30 15:31:40;;;;;;;;;47.50;37.50;;;;;16.03;56.11;99587.47;5034456;28;46439;-77
2022/03/30 15:34:05;;;;;;;;;40.50;36.00;;;;;16.01;56.00;99589.44;5034214;28;45663;-78
2022/03/30 15:36:31;;;;;;;;;37.50;32.75;;;;;15.83;56.82;99563.00;5033989;28;45254;-77
2022/03/30 15:38:56;;;;;;;;;35.75;27.25;;;;;15.97;57.06;99593.41;5034499;28;46339;-77
2022/03/30 15:41:24;;;;;;;;;43.25;36.00;;;;;15.97;57.18;99594.28;5016285;28;45438;-79
2022/03/30 15:43:49;;;;;;;;;48.50;38.25;;;;;15.98;57.89;99584.31;5034022;28;45470;-77
2022/03/30 15:46:15;;;;;;;;;51.75;39.00;;;;;15.91;59.08;99567.75;5033909;28;45567;-77
2022/03/30 15:48:40;;;;;;;;;50.25;39.75;;;;;15.95;58.77;99580.03;5034171;28;46124;-77
2022/03/30 15:51:06;;;;;;;;;49.00;36.00;;;;;15.94;58.47;99563.94;5034126;28;45424;-77
2022/03/30 15:53:36;;;;;;;;;48.50;40.75;;;;;15.96;59.11;99557.41;5033421;28;45794;-78
2022/03/30 15:56:02;;;;;;;;;50.00;38.25;;;;;16.08;57.94;99560.88;5015892;28;45381;-80
2022/03/30 15:58:29;;;;;;;;;47.50;38.00;;;;;16.19;58.48;99583.28;5034359;28;45511;-80
2022/03/30 16:00:55;;;;;;;;;48.75;37.75;;;;;16.19;58.11;99571.63;5034130;28;45312;-80
2022/03/30 16:03:21;;;;;;;;;52.50;39.75;;;;;16.20;58.15;99578.75;5037526;28;45533;-79